地図

経路データ

SID SEASON NUMBER BASIN SUBBASIN NAME ISO_TIME NATURE LAT LON WMO_WIND WMO_PRES WMO_AGENCY TRACK_TYPE DIST2LAND LANDFALL IFLAG USA_AGENCY USA_ATCF_ID USA_LAT USA_LON USA_RECORD USA_STATUS USA_WIND USA_PRES USA_SSHS USA_R34_NE USA_R34_SE USA_R34_SW USA_R34_NW USA_R50_NE USA_R50_SE USA_R50_SW USA_R50_NW USA_R64_NE USA_R64_SE USA_R64_SW USA_R64_NW USA_POCI USA_ROCI USA_RMW USA_EYE TOKYO_LAT TOKYO_LON TOKYO_GRADE TOKYO_WIND TOKYO_PRES TOKYO_R50_DIR TOKYO_R50_LONG TOKYO_R50_SHORT TOKYO_R30_DIR TOKYO_R30_LONG TOKYO_R30_SHORT TOKYO_LAND CMA_LAT CMA_LON CMA_CAT CMA_WIND CMA_PRES HKO_LAT HKO_LON HKO_CAT HKO_WIND HKO_PRES NEWDELHI_LAT NEWDELHI_LON NEWDELHI_GRADE NEWDELHI_WIND NEWDELHI_PRES NEWDELHI_CI NEWDELHI_DP NEWDELHI_POCI REUNION_LAT REUNION_LON REUNION_TYPE REUNION_WIND REUNION_PRES REUNION_TNUM REUNION_CI REUNION_RMW REUNION_R34_NE REUNION_R34_SE REUNION_R34_SW REUNION_R34_NW REUNION_R50_NE REUNION_R50_SE REUNION_R50_SW REUNION_R50_NW REUNION_R64_NE REUNION_R64_SE REUNION_R64_SW REUNION_R64_NW BOM_LAT BOM_LON BOM_TYPE BOM_WIND BOM_PRES BOM_TNUM BOM_CI BOM_RMW BOM_R34_NE BOM_R34_SE BOM_R34_SW BOM_R34_NW BOM_R50_NE BOM_R50_SE BOM_R50_SW BOM_R50_NW BOM_R64_NE BOM_R64_SE BOM_R64_SW BOM_R64_NW BOM_ROCI BOM_POCI BOM_EYE BOM_POS_METHOD BOM_PRES_METHOD NADI_LAT NADI_LON NADI_CAT NADI_WIND NADI_PRES WELLINGTON_LAT WELLINGTON_LON WELLINGTON_WIND WELLINGTON_PRES DS824_LAT DS824_LON DS824_STAGE DS824_WIND DS824_PRES TD9636_LAT TD9636_LON TD9636_STAGE TD9636_WIND TD9636_PRES TD9635_LAT TD9635_LON TD9635_WIND TD9635_PRES TD9635_ROCI NEUMANN_LAT NEUMANN_LON NEUMANN_CLASS NEUMANN_WIND NEUMANN_PRES MLC_LAT MLC_LON MLC_CLASS MLC_WIND MLC_PRES USA_GUST BOM_GUST BOM_GUST_PER REUNION_GUST REUNION_GUST_PER USA_SEAHGT USA_SEARAD_NE USA_SEARAD_SE USA_SEARAD_SW USA_SEARAD_NW STORM_SPEED STORM_DIR
2016318N18253 2016 88 EP MM TINA 2016-11-13 06:00:00 TS 17.5000 -107.300 35 1005 hurdat_epa main 322 307 O_____________ hurdat_epa EP212016 17.5000 -107.300 TS 35 1005 0 90 90 1011 250 120 2 28
2016318N18253 2016 88 EP MM TINA 2016-11-13 09:00:00 TS 17.6050 -107.240 main 307 299 P_____________ EP212016 17.6050 -107.240 TS 35 1004 0 90 90 1010 250 120 2 27
2016318N18253 2016 88 EP MM TINA 2016-11-13 12:00:00 TS 17.7000 -107.200 35 1004 hurdat_epa main 299 291 O_____________ hurdat_epa EP212016 17.7000 -107.200 TS 35 1004 0 90 90 1010 250 120 2 14
2016318N18253 2016 88 EP MM TINA 2016-11-13 15:00:00 TS 17.7850 -107.192 main 291 283 P_____________ EP212016 17.7850 -107.192 TS 35 1004 0 90 90 1010 250 105 2 8
2016318N18253 2016 88 EP MM TINA 2016-11-13 18:00:00 TS 17.9000 -107.200 35 1005 hurdat_epa main 283 268 O_____________ hurdat_epa EP212016 17.9000 -107.200 TS 35 1005 0 90 90 1010 250 90 3 6
2016318N18253 2016 88 EP MM TINA 2016-11-13 21:00:00 TS 18.0924 -107.163 main 268 253 P_____________ EP212016 18.0924 -107.163 TS 35 1005 0 90 90 1010 250 90 4 0
2016318N18253 2016 88 EP MM TINA 2016-11-14 00:00:00 TS 18.3000 -107.200 35 1005 hurdat_epa main 253 247 O_____________ hurdat_epa EP212016 18.3000 -107.200 TS 35 1005 0 90 90 1010 250 90 45 12 90 4 328
2016318N18253 2016 88 EP MM TINA 2016-11-14 03:00:00 TS 18.4650 -107.405 main 258 258 P_____________ EP212016 18.4650 -107.405 TS 32 1005 -1 1009 185 90 12 90 6 302
2016318N18253 2016 88 EP MM TINA 2016-11-14 06:00:00 TS 18.6000 -107.700 30 1006 hurdat_epa main 278 278 O_____________ hurdat_epa EP212016 18.6000 -107.700 TD 30 1006 -1 1009 120 90 45 12 90 6 294
2016318N18253 2016 88 EP MM TINA 2016-11-14 09:00:00 TS 18.7150 -108.000 main 299 299 P_____________ EP212016 18.7150 -108.000 TD 30 1006 -1 1009 120 90 12 90 6 289
2016318N18253 2016 88 EP MM TINA 2016-11-14 12:00:00 DS 18.8000 -108.300 30 1007 hurdat_epa main 322 322 O_____________ hurdat_epa EP212016 18.8000 -108.300 LO 30 1007 -3 1010 120 90 45 12 90 60 5 285
2016318N18253 2016 88 EP MM TINA 2016-11-14 15:00:00 DS 18.8574 -108.550 main 346 346 P_____________ EP212016 18.8574 -108.550 LO 30 1007 -3 1010 120 90 12 75 45 5 282
2016318N18253 2016 88 EP MM TINA 2016-11-14 18:00:00 DS 18.9000 -108.800 30 1008 hurdat_epa main 365 365 O_____________ hurdat_epa EP212016 18.9000 -108.800 LO 30 1008 -3 1011 120 90 40 12 60 30 5 281
2016318N18253 2016 88 EP MM TINA 2016-11-14 21:00:00 DS 18.9575 -109.092 main 388 388 P_____________ EP212016 18.9575 -109.092 LO 27 1008 -3 1011 120 85 12 45 6 280
2016318N18253 2016 88 EP MM TINA 2016-11-15 00:00:00 DS 19.0000 -109.400 25 1009 hurdat_epa main 417 417 O_____________ hurdat_epa EP212016 19.0000 -109.400 LO 25 1009 -3 1011 120 80 35 12 30 6 275
2016318N18253 2016 88 EP MM TINA 2016-11-15 03:00:00 DS 19.0075 -109.708 main 436 436 P_____________ EP212016 19.0075 -109.708 LO 25 1009 -3 1011 120 75 6 270
2016318N18253 2016 88 EP MM TINA 2016-11-15 06:00:00 DS 19.0000 -110.000 25 1009 hurdat_epa main 436 436 O_____________ hurdat_epa EP212016 19.0000 -110.000 LO 25 1009 -3 1011 120 70 5 269
2016318N18253 2016 88 EP MM TINA 2016-11-15 09:00:00 DS 18.9999 -110.258 main 437 437 P_____________ EP212016 18.9999 -110.258 LO 25 1009 -3 1011 120 65 5 270
2016318N18253 2016 88 EP MM TINA 2016-11-15 12:00:00 DS 19.0000 -110.500 25 1009 hurdat_epa main 439 439 O_____________ hurdat_epa EP212016 19.0000 -110.500 LO 25 1009 -3 1011 120 60 5 270
2016318N18253 2016 88 EP MM TINA 2016-11-15 15:00:00 DS 19.0000 -110.750 main 443 443 P_____________ EP212016 19.0000 -110.750 LO 25 1009 -3 1011 120 55 5 270
2016318N18253 2016 88 EP MM TINA 2016-11-15 18:00:00 DS 19.0000 -111.000 25 1009 hurdat_epa main 448 448 O_____________ hurdat_epa EP212016 19.0000 -111.000 LO 25 1009 -3 1011 120 50 5 271
2016318N18253 2016 88 EP MM TINA 2016-11-15 21:00:00 DS 19.0075 -111.250 main 453 453 P_____________ EP212016 19.0075 -111.250 LO 22 1009 -3 1011 120 50 5 270
2016318N18253 2016 88 EP MM TINA 2016-11-16 00:00:00 DS 19.0000 -111.500 20 1010 hurdat_epa main 463 463 O_____________ hurdat_epa EP212016 19.0000 -111.500 LO 20 1010 -3 1011 120 50 5 263
2016318N18253 2016 88 EP MM TINA 2016-11-16 03:00:00 DS 18.9500 -111.750 main 484 484 P_____________ EP212016 18.9500 -111.750 LO 20 1010 -3 1011 120 45 5 258
2016318N18253 2016 88 EP MM TINA 2016-11-16 06:00:00 DS 18.9000 -112.000 20 1011 hurdat_epa main 493 493 O_____________ hurdat_epa EP212016 18.9000 -112.000 LO 20 1011 -3 1011 120 40 5 263
2016318N18253 2016 88 EP MM TINA 2016-11-16 09:00:00 DS 18.8925 -112.265 main 507 507 P_____________ EP212016 18.8925 -112.265 LO 20 1011 -3 1011 120 35 5 270
2016318N18253 2016 88 EP MM TINA 2016-11-16 12:00:00 DS 18.9000 -112.500 20 1011 hurdat_epa main 517 517 O_____________ hurdat_epa EP212016 18.9000 -112.500 LO 20 1011 -3 1011 120 30 4 272
2016318N18253 2016 88 EP MM TINA 2016-11-16 15:00:00 DS 18.9075 -112.680 main 527 527 P_____________ EP212016 18.9075 -112.680 LO 20 1011 -3 1011 120 30 3 270
2016318N18253 2016 88 EP MM TINA 2016-11-16 18:00:00 DS 18.9000 -112.800 20 1012 hurdat_epa main 533 533 O_____________ hurdat_epa EP212016 18.9000 -112.800 LO 20 1012 -3 1011 120 30 2 252
2016318N18253 2016 88 EP MM TINA 2016-11-16 21:00:00 DS 18.8500 -112.865 main 548 548 P_____________ EP212016 18.8500 -112.865 LO 20 1012 -3 1011 120 30 1 223
2016318N18253 2016 88 EP MM TINA 2016-11-17 00:00:00 DS 18.8000 -112.900 20 1013 hurdat_epa main 548 548 O_____________ hurdat_epa EP212016 18.8000 -112.900 LO 20 1013 -3 1011 120 30 1 232
2016318N18253 2016 88 EP MM TINA 2016-11-17 03:00:00 DS 18.7850 -112.950 main 554 554 P_____________ EP212016 18.7850 -112.950 LO 20 1013 -3 1011 120 30 1 270
2016318N18253 2016 88 EP MM TINA 2016-11-17 06:00:00 DS 18.8000 -113.000 20 1013 hurdat_epa main 554 554 O_____________ hurdat_epa EP212016 18.8000 -113.000 LO 20 1013 -3 1011 120 30 1 308
2016318N18253 2016 88 EP MM TINA 2016-11-17 09:00:00 DS 18.8500 -113.035 main 554 545 P_____________ EP212016 18.8500 -113.035 LO 20 1013 -3 1011 120 30 1 317
2016318N18253 2016 88 EP MM TINA 2016-11-17 12:00:00 DS 18.9000 -113.100 20 1013 hurdat_epa main 551 551 O_____________ hurdat_epa EP212016 18.9000 -113.100 LO 20 1013 -3 1011 120 30 2 287
2016318N18253 2016 88 EP MM TINA 2016-11-17 15:00:00 DS 18.9075 -113.235 main 557 557 P_____________ EP212016 18.9075 -113.235 LO 17 1013 -3 1011 120 30 3 270
2016318N18253 2016 88 EP MM TINA 2016-11-17 18:00:00 DS 18.9000 -113.400 15 1014 hurdat_epa main 569 569 O_____________ hurdat_epa EP212016 18.9000 -113.400 LO 15 1014 -3 1011 120 30 3 268
2016318N18253 2016 88 EP MM TINA 2016-11-17 21:00:00 DS 18.8999 -113.535 main 576 576 P_____________ EP212016 18.8999 -113.535 LO 15 1014 -3 1011 120 30 3 270
2016318N18253 2016 88 EP MM TINA 2016-11-18 00:00:00 DS 18.9000 -113.700 15 1014 hurdat_epa main 589 589 O_____________ hurdat_epa EP212016 18.9000 -113.700 LO 15 1014 -3 1011 120 30 4 268
2016318N18253 2016 88 EP MM TINA 2016-11-18 03:00:00 DS 18.8850 -113.935 main 603 603 P_____________ EP212016 18.8850 -113.935 LO 15 1014 -3 1011 120 30 5 270
2016318N18253 2016 88 EP MM TINA 2016-11-18 06:00:00 DS 18.9000 -114.200 15 1014 hurdat_epa main 624 624 O_____________ hurdat_epa EP212016 18.9000 -114.200 LO 15 1014 -3 1011 120 30 5 281
2016318N18253 2016 88 EP MM TINA 2016-11-18 09:00:00 DS 18.9800 -114.455 main 639 639 P_____________ EP212016 18.9800 -114.455 LO 15 1014 -3 1011 120 30 5 293
2016318N18253 2016 88 EP MM TINA 2016-11-18 12:00:00 DS 19.1000 -114.700 15 1014 hurdat_epa main 646 O_____________ hurdat_epa EP212016 19.1000 -114.700 LO 15 1014 -3 1011 120 30 5 298

IBTrACS Databaseについて

本データベースは、米国NOAAが公開する1842年以降の世界の熱帯低気圧のベストトラックデータアーカイブInternational Best Track Archive for Climate Stewardship (IBTrACS)を、ウェブで閲覧しやすい形式に変換したものです。

最終更新日:2021-10-25